sensor_id;sensor_type;location;lat;lon;timestamp;P1;durP1;ratioP1;P2;durP2;ratioP2
25511;SDS011;13414;44.534;18.700;2023-02-03T00:01:02;29.75;;;16.42;;
25511;SDS011;13414;44.534;18.700;2023-02-03T00:03:30;24.90;;;12.60;;
25511;SDS011;13414;44.534;18.700;2023-02-03T00:05:57;26.30;;;13.05;;
25511;SDS011;13414;44.534;18.700;2023-02-03T00:08:27;26.48;;;13.23;;
25511;SDS011;13414;44.534;18.700;2023-02-03T00:10:54;28.05;;;13.23;;
25511;SDS011;13414;44.534;18.700;2023-02-03T00:13:23;23.17;;;12.63;;
25511;SDS011;13414;44.534;18.700;2023-02-03T00:15:51;22.00;;;11.50;;
25511;SDS011;13414;44.534;18.700;2023-02-03T00:18:18;18.38;;;10.32;;
25511;SDS011;13414;44.534;18.700;2023-02-03T00:20:46;17.70;;;10.15;;
25511;SDS011;13414;44.534;18.700;2023-02-03T00:23:13;16.10;;;9.27;;
25511;SDS011;13414;44.534;18.700;2023-02-03T00:25:40;22.17;;;9.35;;
25511;SDS011;13414;44.534;18.700;2023-02-03T00:28:08;26.58;;;12.73;;
25511;SDS011;13414;44.534;18.700;2023-02-03T00:30:37;18.60;;;10.38;;
25511;SDS011;13414;44.534;18.700;2023-02-03T00:33:05;18.92;;;9.98;;
25511;SDS011;13414;44.534;18.700;2023-02-03T00:35:32;18.73;;;10.13;;
25511;SDS011;13414;44.534;18.700;2023-02-03T00:38:03;16.75;;;9.75;;
25511;SDS011;13414;44.534;18.700;2023-02-03T00:40:30;20.02;;;11.50;;
25511;SDS011;13414;44.534;18.700;2023-02-03T00:42:58;20.17;;;11.23;;
25511;SDS011;13414;44.534;18.700;2023-02-03T00:45:25;18.45;;;11.18;;
25511;SDS011;13414;44.534;18.700;2023-02-03T00:47:54;24.15;;;13.18;;
25511;SDS011;13414;44.534;18.700;2023-02-03T00:50:21;20.05;;;11.80;;
25511;SDS011;13414;44.534;18.700;2023-02-03T00:52:49;21.30;;;12.18;;
25511;SDS011;13414;44.534;18.700;2023-02-03T00:55:16;22.55;;;11.80;;
25511;SDS011;13414;44.534;18.700;2023-02-03T00:57:43;19.70;;;11.43;;
25511;SDS011;13414;44.534;18.700;2023-02-03T01:00:13;22.02;;;12.13;;
25511;SDS011;13414;44.534;18.700;2023-02-03T01:02:41;19.23;;;11.63;;
25511;SDS011;13414;44.534;18.700;2023-02-03T01:05:10;21.33;;;11.55;;
25511;SDS011;13414;44.534;18.700;2023-02-03T01:07:38;21.10;;;10.48;;
25511;SDS011;13414;44.534;18.700;2023-02-03T01:10:05;20.77;;;11.63;;
25511;SDS011;13414;44.534;18.700;2023-02-03T01:12:33;21.80;;;11.82;;
25511;SDS011;13414;44.534;18.700;2023-02-03T01:15:01;21.23;;;11.18;;
25511;SDS011;13414;44.534;18.700;2023-02-03T01:17:28;21.52;;;11.13;;
25511;SDS011;13414;44.534;18.700;2023-02-03T01:19:56;19.65;;;10.85;;
25511;SDS011;13414;44.534;18.700;2023-02-03T01:22:24;21.75;;;11.75;;
25511;SDS011;13414;44.534;18.700;2023-02-03T01:24:55;22.35;;;12.23;;
25511;SDS011;13414;44.534;18.700;2023-02-03T01:27:22;21.00;;;11.27;;
25511;SDS011;13414;44.534;18.700;2023-02-03T01:29:49;22.80;;;12.32;;
25511;SDS011;13414;44.534;18.700;2023-02-03T01:32:17;21.83;;;11.98;;
25511;SDS011;13414;44.534;18.700;2023-02-03T01:34:45;21.63;;;12.15;;
25511;SDS011;13414;44.534;18.700;2023-02-03T01:37:12;23.98;;;12.00;;
25511;SDS011;13414;44.534;18.700;2023-02-03T01:39:43;22.15;;;12.27;;
25511;SDS011;13414;44.534;18.700;2023-02-03T01:42:11;22.52;;;12.10;;
25511;SDS011;13414;44.534;18.700;2023-02-03T01:44:43;23.52;;;12.73;;
25511;SDS011;13414;44.534;18.700;2023-02-03T01:47:13;24.20;;;13.23;;
25511;SDS011;13414;44.534;18.700;2023-02-03T01:49:48;23.33;;;13.93;;
25511;SDS011;13414;44.534;18.700;2023-02-03T01:52:19;26.92;;;14.27;;
25511;SDS011;13414;44.534;18.700;2023-02-03T01:54:48;29.23;;;14.07;;
25511;SDS011;13414;44.534;18.700;2023-02-03T01:57:20;30.17;;;15.25;;
25511;SDS011;13414;44.534;18.700;2023-02-03T01:59:53;31.27;;;16.40;;
25511;SDS011;13414;44.534;18.700;2023-02-03T02:02:22;30.08;;;16.90;;
25511;SDS011;13414;44.534;18.700;2023-02-03T02:04:53;35.28;;;18.05;;
25511;SDS011;13414;44.534;18.700;2023-02-03T02:07:27;32.60;;;17.55;;
25511;SDS011;13414;44.534;18.700;2023-02-03T02:09:56;36.53;;;17.73;;
25511;SDS011;13414;44.534;18.700;2023-02-03T02:12:25;36.28;;;18.10;;
25511;SDS011;13414;44.534;18.700;2023-02-03T02:14:52;32.10;;;16.35;;
25511;SDS011;13414;44.534;18.700;2023-02-03T02:17:26;34.05;;;14.88;;
25511;SDS011;13414;44.534;18.700;2023-02-03T02:23:40;26.40;;;14.98;;
25511;SDS011;13414;44.534;18.700;2023-02-03T02:26:32;28.15;;;13.52;;
25511;SDS011;13414;44.534;18.700;2023-02-03T02:32:28;25.60;;;13.88;;
25511;SDS011;13414;44.534;18.700;2023-02-03T02:35:09;27.92;;;14.18;;
25511;SDS011;13414;44.534;18.700;2023-02-03T02:37:48;23.92;;;13.80;;
25511;SDS011;13414;44.534;18.700;2023-02-03T02:40:22;24.73;;;12.75;;
25511;SDS011;13414;44.534;18.700;2023-02-03T02:42:57;24.45;;;14.18;;
25511;SDS011;13414;44.534;18.700;2023-02-03T02:45:31;22.48;;;12.90;;
25511;SDS011;13414;44.534;18.700;2023-02-03T02:48:07;22.95;;;13.05;;
25511;SDS011;13414;44.534;18.700;2023-02-03T02:50:43;22.33;;;11.25;;
25511;SDS011;13414;44.534;18.700;2023-02-03T02:53:13;20.10;;;12.27;;
25511;SDS011;13414;44.534;18.700;2023-02-03T02:55:42;22.05;;;12.65;;
25511;SDS011;13414;44.534;18.700;2023-02-03T02:58:12;18.48;;;12.32;;
25511;SDS011;13414;44.534;18.700;2023-02-03T03:00:42;23.95;;;13.38;;
25511;SDS011;13414;44.534;18.700;2023-02-03T03:03:13;20.33;;;12.70;;
25511;SDS011;13414;44.534;18.700;2023-02-03T03:05:43;23.52;;;12.15;;
25511;SDS011;13414;44.534;18.700;2023-02-03T03:08:19;25.80;;;13.27;;
25511;SDS011;13414;44.534;18.700;2023-02-03T03:10:51;22.58;;;13.20;;
25511;SDS011;13414;44.534;18.700;2023-02-03T03:13:22;35.22;;;19.20;;
25511;SDS011;13414;44.534;18.700;2023-02-03T03:15:53;35.08;;;19.48;;
25511;SDS011;13414;44.534;18.700;2023-02-03T03:18:25;35.17;;;20.40;;
25511;SDS011;13414;44.534;18.700;2023-02-03T03:20:58;35.25;;;20.63;;
25511;SDS011;13414;44.534;18.700;2023-02-03T03:23:31;42.35;;;23.55;;
25511;SDS011;13414;44.534;18.700;2023-02-03T03:26:05;40.63;;;22.73;;
25511;SDS011;13414;44.534;18.700;2023-02-03T03:28:39;39.10;;;22.52;;
25511;SDS011;13414;44.534;18.700;2023-02-03T03:31:12;38.40;;;22.65;;
25511;SDS011;13414;44.534;18.700;2023-02-03T03:33:42;40.47;;;22.73;;
25511;SDS011;13414;44.534;18.700;2023-02-03T03:36:11;47.53;;;23.52;;
25511;SDS011;13414;44.534;18.700;2023-02-03T03:38:45;39.03;;;21.45;;
25511;SDS011;13414;44.534;18.700;2023-02-03T03:41:19;47.50;;;24.57;;
25511;SDS011;13414;44.534;18.700;2023-02-03T03:43:55;44.55;;;25.00;;
25511;SDS011;13414;44.534;18.700;2023-02-03T03:46:26;43.30;;;24.45;;
25511;SDS011;13414;44.534;18.700;2023-02-03T03:48:59;46.95;;;25.17;;
25511;SDS011;13414;44.534;18.700;2023-02-03T03:51:30;50.38;;;26.25;;
25511;SDS011;13414;44.534;18.700;2023-02-03T03:54:02;38.05;;;19.15;;
25511;SDS011;13414;44.534;18.700;2023-02-03T03:56:34;33.25;;;19.67;;
25511;SDS011;13414;44.534;18.700;2023-02-03T03:59:05;31.98;;;19.63;;
25511;SDS011;13414;44.534;18.700;2023-02-03T04:01:34;32.40;;;19.70;;
25511;SDS011;13414;44.534;18.700;2023-02-03T04:04:05;38.00;;;20.55;;
25511;SDS011;13414;44.534;18.700;2023-02-03T04:06:35;32.38;;;20.42;;
25511;SDS011;13414;44.534;18.700;2023-02-03T04:09:04;36.55;;;21.73;;
25511;SDS011;13414;44.534;18.700;2023-02-03T04:11:32;32.40;;;21.58;;
25511;SDS011;13414;44.534;18.700;2023-02-03T04:14:17;37.40;;;26.02;;
25511;SDS011;13414;44.534;18.700;2023-02-03T04:16:44;45.47;;;29.08;;
25511;SDS011;13414;44.534;18.700;2023-02-03T04:19:19;52.03;;;33.17;;
25511;SDS011;13414;44.534;18.700;2023-02-03T04:21:47;57.63;;;34.30;;
25511;SDS011;13414;44.534;18.700;2023-02-03T04:24:14;60.65;;;36.50;;
25511;SDS011;13414;44.534;18.700;2023-02-03T04:26:42;68.93;;;41.60;;
25511;SDS011;13414;44.534;18.700;2023-02-03T04:29:10;61.45;;;37.20;;
25511;SDS011;13414;44.534;18.700;2023-02-03T04:31:37;58.45;;;35.85;;
25511;SDS011;13414;44.534;18.700;2023-02-03T04:34:04;56.30;;;35.35;;
25511;SDS011;13414;44.534;18.700;2023-02-03T04:36:33;71.15;;;41.80;;
25511;SDS011;13414;44.534;18.700;2023-02-03T04:39:01;66.05;;;40.00;;
25511;SDS011;13414;44.534;18.700;2023-02-03T04:41:28;62.85;;;38.20;;
25511;SDS011;13414;44.534;18.700;2023-02-03T04:43:56;121.53;;;65.40;;
25511;SDS011;13414;44.534;18.700;2023-02-03T04:46:23;113.80;;;61.00;;
25511;SDS011;13414;44.534;18.700;2023-02-03T04:48:51;114.63;;;60.67;;
25511;SDS011;13414;44.534;18.700;2023-02-03T04:51:18;74.78;;;45.40;;
25511;SDS011;13414;44.534;18.700;2023-02-03T04:53:47;70.97;;;44.28;;
25511;SDS011;13414;44.534;18.700;2023-02-03T04:56:14;71.35;;;42.75;;
25511;SDS011;13414;44.534;18.700;2023-02-03T04:58:42;64.68;;;42.45;;
25511;SDS011;13414;44.534;18.700;2023-02-03T05:01:09;67.82;;;43.15;;
25511;SDS011;13414;44.534;18.700;2023-02-03T05:03:37;54.17;;;35.60;;
25511;SDS011;13414;44.534;18.700;2023-02-03T05:06:05;50.38;;;32.38;;
25511;SDS011;13414;44.534;18.700;2023-02-03T05:08:32;44.60;;;28.30;;
25511;SDS011;13414;44.534;18.700;2023-02-03T05:11:01;43.75;;;27.58;;
25511;SDS011;13414;44.534;18.700;2023-02-03T05:13:28;43.60;;;27.63;;
25511;SDS011;13414;44.534;18.700;2023-02-03T05:15:56;35.20;;;22.70;;
25511;SDS011;13414;44.534;18.700;2023-02-03T05:18:23;37.20;;;21.75;;
25511;SDS011;13414;44.534;18.700;2023-02-03T05:20:51;37.17;;;21.17;;
25511;SDS011;13414;44.534;18.700;2023-02-03T05:23:18;35.90;;;21.83;;
25511;SDS011;13414;44.534;18.700;2023-02-03T05:25:46;32.22;;;18.73;;
25511;SDS011;13414;44.534;18.700;2023-02-03T05:28:16;43.35;;;26.92;;
25511;SDS011;13414;44.534;18.700;2023-02-03T05:30:43;43.47;;;25.27;;
25511;SDS011;13414;44.534;18.700;2023-02-03T05:33:11;51.28;;;29.02;;
25511;SDS011;13414;44.534;18.700;2023-02-03T05:35:38;73.38;;;40.95;;
25511;SDS011;13414;44.534;18.700;2023-02-03T05:38:06;67.38;;;38.28;;
25511;SDS011;13414;44.534;18.700;2023-02-03T05:40:33;30.95;;;19.30;;
25511;SDS011;13414;44.534;18.700;2023-02-03T05:43:20;38.95;;;23.15;;
25511;SDS011;13414;44.534;18.700;2023-02-03T05:45:47;45.42;;;25.83;;
25511;SDS011;13414;44.534;18.700;2023-02-03T05:48:14;44.90;;;25.63;;
25511;SDS011;13414;44.534;18.700;2023-02-03T05:50:42;54.20;;;30.45;;
25511;SDS011;13414;44.534;18.700;2023-02-03T05:53:09;50.47;;;31.92;;
25511;SDS011;13414;44.534;18.700;2023-02-03T05:55:37;91.95;;;50.00;;
25511;SDS011;13414;44.534;18.700;2023-02-03T05:58:05;80.30;;;47.33;;
25511;SDS011;13414;44.534;18.700;2023-02-03T06:00:34;84.50;;;47.33;;
25511;SDS011;13414;44.534;18.700;2023-02-03T06:03:02;62.72;;;36.13;;
25511;SDS011;13414;44.534;18.700;2023-02-03T06:05:30;69.95;;;37.45;;
25511;SDS011;13414;44.534;18.700;2023-02-03T06:07:59;60.65;;;34.03;;
25511;SDS011;13414;44.534;18.700;2023-02-03T06:10:27;70.60;;;40.60;;
25511;SDS011;13414;44.534;18.700;2023-02-03T06:12:55;108.72;;;62.60;;
25511;SDS011;13414;44.534;18.700;2023-02-03T06:15:22;82.60;;;44.83;;
25511;SDS011;13414;44.534;18.700;2023-02-03T06:17:51;94.57;;;53.92;;
25511;SDS011;13414;44.534;18.700;2023-02-03T06:20:18;116.68;;;68.53;;
25511;SDS011;13414;44.534;18.700;2023-02-03T06:22:47;143.77;;;81.72;;
25511;SDS011;13414;44.534;18.700;2023-02-03T06:25:14;145.25;;;80.05;;
25511;SDS011;13414;44.534;18.700;2023-02-03T06:27:42;149.02;;;79.35;;
25511;SDS011;13414;44.534;18.700;2023-02-03T06:30:09;150.10;;;84.40;;
25511;SDS011;13414;44.534;18.700;2023-02-03T06:32:38;145.63;;;83.07;;
25511;SDS011;13414;44.534;18.700;2023-02-03T06:35:07;155.90;;;86.32;;
25511;SDS011;13414;44.534;18.700;2023-02-03T06:37:35;139.75;;;81.75;;
25511;SDS011;13414;44.534;18.700;2023-02-03T06:40:03;132.80;;;80.82;;
25511;SDS011;13414;44.534;18.700;2023-02-03T06:42:31;170.73;;;96.70;;
25511;SDS011;13414;44.534;18.700;2023-02-03T06:44:59;192.75;;;108.05;;
25511;SDS011;13414;44.534;18.700;2023-02-03T06:47:26;187.50;;;111.13;;
25511;SDS011;13414;44.534;18.700;2023-02-03T06:49:53;168.23;;;101.03;;
25511;SDS011;13414;44.534;18.700;2023-02-03T06:52:22;148.43;;;92.30;;
25511;SDS011;13414;44.534;18.700;2023-02-03T06:54:50;140.23;;;84.35;;
25511;SDS011;13414;44.534;18.700;2023-02-03T06:57:18;135.10;;;82.53;;
25511;SDS011;13414;44.534;18.700;2023-02-03T06:59:45;161.68;;;103.55;;
25511;SDS011;13414;44.534;18.700;2023-02-03T07:02:13;154.20;;;100.18;;
25511;SDS011;13414;44.534;18.700;2023-02-03T07:04:40;159.38;;;96.43;;
25511;SDS011;13414;44.534;18.700;2023-02-03T07:07:09;236.93;;;131.32;;
25511;SDS011;13414;44.534;18.700;2023-02-03T07:09:38;189.52;;;108.18;;
25511;SDS011;13414;44.534;18.700;2023-02-03T07:12:06;178.95;;;101.03;;
25511;SDS011;13414;44.534;18.700;2023-02-03T07:14:34;168.85;;;99.63;;
25511;SDS011;13414;44.534;18.700;2023-02-03T07:17:03;185.13;;;109.63;;
25511;SDS011;13414;44.534;18.700;2023-02-03T07:19:31;169.85;;;98.32;;
25511;SDS011;13414;44.534;18.700;2023-02-03T07:21:59;156.45;;;94.72;;
25511;SDS011;13414;44.534;18.700;2023-02-03T07:24:26;149.18;;;89.72;;
25511;SDS011;13414;44.534;18.700;2023-02-03T07:26:55;156.88;;;87.53;;
25511;SDS011;13414;44.534;18.700;2023-02-03T07:29:22;154.80;;;85.68;;
25511;SDS011;13414;44.534;18.700;2023-02-03T07:31:50;155.63;;;92.25;;
25511;SDS011;13414;44.534;18.700;2023-02-03T07:34:17;140.20;;;84.50;;
25511;SDS011;13414;44.534;18.700;2023-02-03T07:36:45;140.45;;;84.50;;
25511;SDS011;13414;44.534;18.700;2023-02-03T07:39:12;136.20;;;81.35;;
25511;SDS011;13414;44.534;18.700;2023-02-03T07:41:39;139.88;;;80.38;;
25511;SDS011;13414;44.534;18.700;2023-02-03T07:44:08;178.70;;;93.97;;
25511;SDS011;13414;44.534;18.700;2023-02-03T07:46:36;261.60;;;117.78;;
25511;SDS011;13414;44.534;18.700;2023-02-03T07:49:09;213.35;;;103.43;;
25511;SDS011;13414;44.534;18.700;2023-02-03T07:51:37;218.35;;;105.40;;
25511;SDS011;13414;44.534;18.700;2023-02-03T07:54:04;191.30;;;102.32;;
25511;SDS011;13414;44.534;18.700;2023-02-03T07:56:32;188.38;;;96.75;;
25511;SDS011;13414;44.534;18.700;2023-02-03T07:58:59;153.27;;;77.40;;
25511;SDS011;13414;44.534;18.700;2023-02-03T08:01:28;127.70;;;66.72;;
25511;SDS011;13414;44.534;18.700;2023-02-03T08:03:56;96.05;;;51.83;;
25511;SDS011;13414;44.534;18.700;2023-02-03T08:06:26;65.47;;;36.38;;
25511;SDS011;13414;44.534;18.700;2023-02-03T08:08:54;61.78;;;36.30;;
25511;SDS011;13414;44.534;18.700;2023-02-03T08:11:22;63.45;;;36.78;;
25511;SDS011;13414;44.534;18.700;2023-02-03T08:13:49;63.53;;;36.05;;
25511;SDS011;13414;44.534;18.700;2023-02-03T08:16:17;72.07;;;38.55;;
25511;SDS011;13414;44.534;18.700;2023-02-03T08:18:46;68.13;;;40.92;;
25511;SDS011;13414;44.534;18.700;2023-02-03T08:21:13;63.25;;;36.05;;
25511;SDS011;13414;44.534;18.700;2023-02-03T08:23:41;71.10;;;38.63;;
25511;SDS011;13414;44.534;18.700;2023-02-03T08:26:08;66.75;;;39.70;;
25511;SDS011;13414;44.534;18.700;2023-02-03T08:28:36;64.53;;;34.78;;
25511;SDS011;13414;44.534;18.700;2023-02-03T08:31:08;74.85;;;38.42;;
25511;SDS011;13414;44.534;18.700;2023-02-03T08:33:36;64.95;;;37.38;;
25511;SDS011;13414;44.534;18.700;2023-02-03T08:36:05;69.63;;;40.35;;
25511;SDS011;13414;44.534;18.700;2023-02-03T08:38:33;73.85;;;41.63;;
25511;SDS011;13414;44.534;18.700;2023-02-03T08:41:05;73.28;;;42.47;;
25511;SDS011;13414;44.534;18.700;2023-02-03T08:43:34;71.65;;;41.60;;
25511;SDS011;13414;44.534;18.700;2023-02-03T08:46:02;64.47;;;39.58;;
25511;SDS011;13414;44.534;18.700;2023-02-03T08:48:30;78.60;;;40.40;;
25511;SDS011;13414;44.534;18.700;2023-02-03T08:50:57;77.80;;;43.05;;
25511;SDS011;13414;44.534;18.700;2023-02-03T08:53:26;64.85;;;39.70;;
25511;SDS011;13414;44.534;18.700;2023-02-03T08:55:54;70.93;;;40.78;;
25511;SDS011;13414;44.534;18.700;2023-02-03T08:58:21;69.50;;;40.95;;
25511;SDS011;13414;44.534;18.700;2023-02-03T09:00:49;62.17;;;36.33;;
25511;SDS011;13414;44.534;18.700;2023-02-03T09:03:17;53.33;;;32.88;;
25511;SDS011;13414;44.534;18.700;2023-02-03T09:05:45;49.58;;;31.50;;
25511;SDS011;13414;44.534;18.700;2023-02-03T09:08:12;51.70;;;28.38;;
25511;SDS011;13414;44.534;18.700;2023-02-03T09:10:41;51.83;;;27.92;;
25511;SDS011;13414;44.534;18.700;2023-02-03T09:13:08;49.25;;;26.55;;
25511;SDS011;13414;44.534;18.700;2023-02-03T09:15:36;34.75;;;19.05;;
25511;SDS011;13414;44.534;18.700;2023-02-03T09:18:08;35.22;;;18.33;;
25511;SDS011;13414;44.534;18.700;2023-02-03T09:20:35;36.55;;;20.13;;
25511;SDS011;13414;44.534;18.700;2023-02-03T09:23:02;28.85;;;14.10;;
25511;SDS011;13414;44.534;18.700;2023-02-03T09:25:30;21.50;;;11.55;;
25511;SDS011;13414;44.534;18.700;2023-02-03T09:28:01;20.20;;;10.35;;
25511;SDS011;13414;44.534;18.700;2023-02-03T09:30:28;17.02;;;9.50;;
25511;SDS011;13414;44.534;18.700;2023-02-03T09:32:56;18.73;;;10.70;;
25511;SDS011;13414;44.534;18.700;2023-02-03T09:35:26;20.25;;;11.80;;
25511;SDS011;13414;44.534;18.700;2023-02-03T09:37:54;19.92;;;10.93;;
25511;SDS011;13414;44.534;18.700;2023-02-03T09:40:29;19.67;;;11.02;;
25511;SDS011;13414;44.534;18.700;2023-02-03T09:43:04;15.15;;;8.95;;
25511;SDS011;13414;44.534;18.700;2023-02-03T09:45:39;13.52;;;7.80;;
25511;SDS011;13414;44.534;18.700;2023-02-03T09:48:10;23.10;;;9.43;;
25511;SDS011;13414;44.534;18.700;2023-02-03T09:50:40;12.02;;;5.35;;
25511;SDS011;13414;44.534;18.700;2023-02-03T09:53:11;13.43;;;5.72;;
25511;SDS011;13414;44.534;18.700;2023-02-03T09:55:49;15.05;;;6.47;;
25511;SDS011;13414;44.534;18.700;2023-02-03T09:58:18;10.18;;;4.47;;
25511;SDS011;13414;44.534;18.700;2023-02-03T10:00:48;11.63;;;3.92;;
25511;SDS011;13414;44.534;18.700;2023-02-03T10:03:24;12.85;;;5.70;;
25511;SDS011;13414;44.534;18.700;2023-02-03T10:08:51;12.03;;;5.50;;
25511;SDS011;13414;44.534;18.700;2023-02-03T10:11:31;13.25;;;7.22;;
25511;SDS011;13414;44.534;18.700;2023-02-03T10:14:22;10.50;;;3.90;;
25511;SDS011;13414;44.534;18.700;2023-02-03T10:17:04;12.90;;;5.15;;
25511;SDS011;13414;44.534;18.700;2023-02-03T10:19:42;13.57;;;5.90;;
25511;SDS011;13414;44.534;18.700;2023-02-03T10:22:14;14.50;;;6.13;;
25511;SDS011;13414;44.534;18.700;2023-02-03T10:24:46;14.50;;;7.35;;
25511;SDS011;13414;44.534;18.700;2023-02-03T10:27:17;11.88;;;5.03;;
25511;SDS011;13414;44.534;18.700;2023-02-03T10:29:50;9.98;;;4.53;;
25511;SDS011;13414;44.534;18.700;2023-02-03T10:32:23;9.90;;;4.37;;
25511;SDS011;13414;44.534;18.700;2023-02-03T10:37:30;10.10;;;3.92;;
25511;SDS011;13414;44.534;18.700;2023-02-03T10:40:03;9.25;;;3.22;;
25511;SDS011;13414;44.534;18.700;2023-02-03T10:42:31;18.70;;;4.38;;
25511;SDS011;13414;44.534;18.700;2023-02-03T10:45:16;9.73;;;3.47;;
25511;SDS011;13414;44.534;18.700;2023-02-03T10:47:44;13.75;;;5.40;;
25511;SDS011;13414;44.534;18.700;2023-02-03T10:50:14;17.80;;;9.43;;
25511;SDS011;13414;44.534;18.700;2023-02-03T10:52:43;16.00;;;6.68;;
25511;SDS011;13414;44.534;18.700;2023-02-03T10:57:56;15.75;;;6.15;;
25511;SDS011;13414;44.534;18.700;2023-02-03T11:00:33;20.88;;;10.30;;
25511;SDS011;13414;44.534;18.700;2023-02-03T11:03:03;13.38;;;5.47;;
25511;SDS011;13414;44.534;18.700;2023-02-03T11:05:32;7.57;;;2.33;;
25511;SDS011;13414;44.534;18.700;2023-02-03T11:08:00;6.20;;;2.90;;
25511;SDS011;13414;44.534;18.700;2023-02-03T11:10:29;12.95;;;4.60;;
25511;SDS011;13414;44.534;18.700;2023-02-03T11:13:11;13.13;;;4.45;;
25511;SDS011;13414;44.534;18.700;2023-02-03T11:15:52;12.68;;;6.15;;
25511;SDS011;13414;44.534;18.700;2023-02-03T11:18:24;15.13;;;6.32;;
25511;SDS011;13414;44.534;18.700;2023-02-03T11:20:58;12.73;;;4.10;;
25511;SDS011;13414;44.534;18.700;2023-02-03T11:23:25;16.42;;;5.10;;
25511;SDS011;13414;44.534;18.700;2023-02-03T11:25:53;9.95;;;4.57;;
25511;SDS011;13414;44.534;18.700;2023-02-03T11:28:20;9.07;;;4.32;;
25511;SDS011;13414;44.534;18.700;2023-02-03T11:30:55;13.15;;;7.00;;
25511;SDS011;13414;44.534;18.700;2023-02-03T11:33:24;16.30;;;7.70;;
25511;SDS011;13414;44.534;18.700;2023-02-03T11:35:54;14.65;;;4.88;;
25511;SDS011;13414;44.534;18.700;2023-02-03T11:38:29;13.43;;;6.47;;
25511;SDS011;13414;44.534;18.700;2023-02-03T11:41:01;10.35;;;4.68;;
25511;SDS011;13414;44.534;18.700;2023-02-03T11:43:29;11.38;;;3.80;;
25511;SDS011;13414;44.534;18.700;2023-02-03T11:46:00;6.60;;;2.58;;
25511;SDS011;13414;44.534;18.700;2023-02-03T11:48:34;5.78;;;2.83;;
25511;SDS011;13414;44.534;18.700;2023-02-03T11:51:03;9.82;;;3.60;;
25511;SDS011;13414;44.534;18.700;2023-02-03T11:53:47;8.23;;;3.88;;
25511;SDS011;13414;44.534;18.700;2023-02-03T11:56:41;8.27;;;3.80;;
25511;SDS011;13414;44.534;18.700;2023-02-03T11:59:29;7.40;;;2.65;;
25511;SDS011;13414;44.534;18.700;2023-02-03T12:05:22;13.40;;;5.88;;
25511;SDS011;13414;44.534;18.700;2023-02-03T12:08:16;12.88;;;4.03;;
25511;SDS011;13414;44.534;18.700;2023-02-03T12:10:56;7.32;;;2.90;;
25511;SDS011;13414;44.534;18.700;2023-02-03T12:13:38;8.65;;;4.13;;
25511;SDS011;13414;44.534;18.700;2023-02-03T12:16:20;14.83;;;5.40;;
25511;SDS011;13414;44.534;18.700;2023-02-03T12:19:07;10.27;;;5.22;;
25511;SDS011;13414;44.534;18.700;2023-02-03T12:21:44;10.13;;;3.80;;
25511;SDS011;13414;44.534;18.700;2023-02-03T12:24:17;10.27;;;4.68;;
25511;SDS011;13414;44.534;18.700;2023-02-03T12:26:54;6.05;;;3.50;;
25511;SDS011;13414;44.534;18.700;2023-02-03T12:29:30;8.50;;;4.18;;
25511;SDS011;13414;44.534;18.700;2023-02-03T12:32:05;11.27;;;3.97;;
25511;SDS011;13414;44.534;18.700;2023-02-03T12:34:38;7.70;;;3.90;;
25511;SDS011;13414;44.534;18.700;2023-02-03T12:37:13;9.82;;;4.15;;
25511;SDS011;13414;44.534;18.700;2023-02-03T12:39:50;11.20;;;4.97;;
25511;SDS011;13414;44.534;18.700;2023-02-03T12:42:21;8.88;;;3.85;;
25511;SDS011;13414;44.534;18.700;2023-02-03T12:44:54;7.75;;;3.75;;
25511;SDS011;13414;44.534;18.700;2023-02-03T12:47:27;8.23;;;3.60;;
25511;SDS011;13414;44.534;18.700;2023-02-03T12:50:01;8.07;;;4.25;;
25511;SDS011;13414;44.534;18.700;2023-02-03T12:52:34;9.13;;;4.78;;
25511;SDS011;13414;44.534;18.700;2023-02-03T12:55:07;11.48;;;5.00;;
25511;SDS011;13414;44.534;18.700;2023-02-03T12:57:47;10.02;;;5.65;;
25511;SDS011;13414;44.534;18.700;2023-02-03T13:02:59;13.52;;;6.63;;
25511;SDS011;13414;44.534;18.700;2023-02-03T13:05:38;16.17;;;8.13;;
25511;SDS011;13414;44.534;18.700;2023-02-03T13:08:15;13.10;;;7.05;;
25511;SDS011;13414;44.534;18.700;2023-02-03T13:10:49;19.48;;;7.43;;
25511;SDS011;13414;44.534;18.700;2023-02-03T13:13:23;11.63;;;5.78;;
25511;SDS011;13414;44.534;18.700;2023-02-03T13:15:58;11.07;;;5.60;;
25511;SDS011;13414;44.534;18.700;2023-02-03T13:18:30;11.38;;;6.10;;
25511;SDS011;13414;44.534;18.700;2023-02-03T13:21:00;12.57;;;5.85;;
25511;SDS011;13414;44.534;18.700;2023-02-03T13:23:28;14.93;;;7.22;;
25511;SDS011;13414;44.534;18.700;2023-02-03T13:26:11;17.27;;;9.30;;
25511;SDS011;13414;44.534;18.700;2023-02-03T13:28:55;18.20;;;9.32;;
25511;SDS011;13414;44.534;18.700;2023-02-03T13:31:47;21.17;;;8.15;;
25511;SDS011;13414;44.534;18.700;2023-02-03T13:37:34;19.88;;;9.40;;
25511;SDS011;13414;44.534;18.700;2023-02-03T13:40:34;21.15;;;8.45;;
25511;SDS011;13414;44.534;18.700;2023-02-03T13:43:11;23.50;;;10.95;;
25511;SDS011;13414;44.534;18.700;2023-02-03T13:45:43;28.25;;;11.93;;
25511;SDS011;13414;44.534;18.700;2023-02-03T13:51:02;25.83;;;15.30;;
25511;SDS011;13414;44.534;18.700;2023-02-03T13:53:32;24.08;;;11.38;;
25511;SDS011;13414;44.534;18.700;2023-02-03T13:56:04;22.00;;;10.73;;
25511;SDS011;13414;44.534;18.700;2023-02-03T13:58:36;20.15;;;10.63;;
25511;SDS011;13414;44.534;18.700;2023-02-03T14:03:54;23.92;;;12.05;;
25511;SDS011;13414;44.534;18.700;2023-02-03T14:15:28;24.27;;;11.75;;
25511;SDS011;13414;44.534;18.700;2023-02-03T14:17:59;25.27;;;12.80;;
25511;SDS011;13414;44.534;18.700;2023-02-03T14:20:42;26.25;;;12.35;;
25511;SDS011;13414;44.534;18.700;2023-02-03T14:23:17;21.25;;;12.45;;
25511;SDS011;13414;44.534;18.700;2023-02-03T14:25:51;29.98;;;13.48;;
25511;SDS011;13414;44.534;18.700;2023-02-03T14:28:28;25.00;;;13.68;;
25511;SDS011;13414;44.534;18.700;2023-02-03T14:31:09;24.45;;;13.63;;
25511;SDS011;13414;44.534;18.700;2023-02-03T14:36:50;25.92;;;13.63;;
25511;SDS011;13414;44.534;18.700;2023-02-03T14:39:24;28.25;;;15.65;;
25511;SDS011;13414;44.534;18.700;2023-02-03T14:42:11;32.03;;;16.35;;
25511;SDS011;13414;44.534;18.700;2023-02-03T14:45:07;38.20;;;18.92;;
25511;SDS011;13414;44.534;18.700;2023-02-03T14:47:52;41.15;;;22.83;;
25511;SDS011;13414;44.534;18.700;2023-02-03T14:50:36;45.85;;;24.42;;
25511;SDS011;13414;44.534;18.700;2023-02-03T14:53:23;53.42;;;27.35;;
25511;SDS011;13414;44.534;18.700;2023-02-03T14:56:07;44.50;;;23.45;;
25511;SDS011;13414;44.534;18.700;2023-02-03T14:58:44;39.85;;;22.02;;
25511;SDS011;13414;44.534;18.700;2023-02-03T15:01:23;35.85;;;19.17;;
25511;SDS011;13414;44.534;18.700;2023-02-03T15:06:50;59.88;;;33.30;;
25511;SDS011;13414;44.534;18.700;2023-02-03T15:09:23;35.85;;;19.63;;
25511;SDS011;13414;44.534;18.700;2023-02-03T15:11:55;47.33;;;20.67;;
25511;SDS011;13414;44.534;18.700;2023-02-03T15:14:24;49.40;;;25.58;;
25511;SDS011;13414;44.534;18.700;2023-02-03T15:16:58;54.58;;;28.70;;
25511;SDS011;13414;44.534;18.700;2023-02-03T15:19:28;54.45;;;26.63;;